createdAt,value
2018-06-11T00:02:01.259Z,19.20
2018-06-11T00:04:30.973Z,19.30
2018-06-11T00:07:00.670Z,19.20
2018-06-11T00:09:30.373Z,19.20
2018-06-11T00:12:00.115Z,19.20
2018-06-11T00:14:29.844Z,19.20
2018-06-11T00:16:59.520Z,19.20
2018-06-11T00:19:29.227Z,19.10
2018-06-11T00:21:58.894Z,19.00
2018-06-11T00:24:28.594Z,19.00
2018-06-11T00:26:58.259Z,19.00
2018-06-11T00:29:27.935Z,19.00
2018-06-11T00:31:57.623Z,19.00
2018-06-11T00:34:27.315Z,18.90
2018-06-11T00:36:57.003Z,18.90
2018-06-11T00:39:26.724Z,18.90
2018-06-11T00:41:56.428Z,18.90
2018-06-11T00:44:26.147Z,18.90
2018-06-11T00:46:55.815Z,18.90
2018-06-11T00:49:25.540Z,18.90
2018-06-11T00:51:55.222Z,18.90
2018-06-11T00:54:25.145Z,18.90
2018-06-11T00:56:54.859Z,18.90
2018-06-11T00:59:24.559Z,18.80
2018-06-11T01:01:54.271Z,18.80
2018-06-11T01:04:23.963Z,18.80
2018-06-11T01:06:53.687Z,18.70
2018-06-11T01:09:23.379Z,18.80
2018-06-11T01:11:53.112Z,18.70
2018-06-11T01:14:22.796Z,18.70
2018-06-11T01:16:52.522Z,18.70
2018-06-11T01:19:22.250Z,18.70
2018-06-11T01:21:51.962Z,18.60
2018-06-11T01:24:21.667Z,18.50
2018-06-11T01:26:51.371Z,18.50
2018-06-11T01:29:21.076Z,18.50
2018-06-11T01:31:50.788Z,18.40
2018-06-11T01:34:20.468Z,18.40
2018-06-11T01:36:50.191Z,18.40
2018-06-11T01:39:19.903Z,18.30
2018-06-11T01:41:49.623Z,18.30
2018-06-11T01:44:19.314Z,18.20
2018-06-11T01:46:49.023Z,18.30
2018-06-11T01:49:18.710Z,18.20
2018-06-11T01:51:48.440Z,18.20
2018-06-11T01:54:18.114Z,18.20
2018-06-11T01:56:47.843Z,18.10
2018-06-11T01:59:17.547Z,18.20
2018-06-11T02:01:47.263Z,18.20
2018-06-11T02:04:16.952Z,18.20
2018-06-11T02:06:46.674Z,18.20
2018-06-11T02:09:16.355Z,18.20
2018-06-11T02:11:46.066Z,18.10
2018-06-11T02:14:15.759Z,18.10
2018-06-11T02:16:45.481Z,18.00
2018-06-11T02:19:15.147Z,18.00
2018-06-11T02:21:44.841Z,17.90
2018-06-11T02:24:14.524Z,17.90
2018-06-11T02:26:44.264Z,17.80
2018-06-11T02:29:13.955Z,17.80
2018-06-11T02:31:43.642Z,17.80
2018-06-11T02:34:13.324Z,17.70
2018-06-11T02:36:43.031Z,17.80
2018-06-11T02:39:12.715Z,17.80
2018-06-11T02:41:42.476Z,17.80
2018-06-11T02:44:12.150Z,17.80
2018-06-11T02:46:41.859Z,17.80
2018-06-11T02:49:11.555Z,17.80
2018-06-11T02:51:41.274Z,17.90
2018-06-11T02:54:10.939Z,17.90
2018-06-11T02:56:40.668Z,17.90
2018-06-11T02:59:10.380Z,17.90
2018-06-11T03:01:40.111Z,17.90
2018-06-11T03:04:09.803Z,17.90
2018-06-11T03:06:39.551Z,17.80
2018-06-11T03:09:09.251Z,17.70
2018-06-11T03:11:39.331Z,17.60
2018-06-11T03:14:09.050Z,17.60
2018-06-11T03:16:38.798Z,17.70
2018-06-11T03:19:08.499Z,17.70
2018-06-11T03:21:38.251Z,17.70
2018-06-11T03:24:07.965Z,17.70
2018-06-11T03:26:37.703Z,17.70
2018-06-11T03:29:07.403Z,17.80
2018-06-11T03:31:37.139Z,17.80
2018-06-11T03:34:06.856Z,17.80
2018-06-11T03:36:36.563Z,17.80
2018-06-11T03:39:08.307Z,17.80
2018-06-11T03:41:38.163Z,17.70
2018-06-11T03:44:07.863Z,17.70
2018-06-11T03:46:37.575Z,17.60
2018-06-11T03:49:07.307Z,17.70
2018-06-11T03:51:37.051Z,17.60
2018-06-11T03:54:07.164Z,17.70
2018-06-11T03:56:36.895Z,17.70
2018-06-11T03:59:07.859Z,17.70
2018-06-11T04:01:37.600Z,17.70
2018-06-11T04:04:07.479Z,17.70
2018-06-11T04:06:37.235Z,17.80
2018-06-11T04:09:07.911Z,17.80
2018-06-11T04:11:37.626Z,17.80
2018-06-11T04:14:07.343Z,17.80
2018-06-11T04:16:37.030Z,17.80
2018-06-11T04:19:06.735Z,17.80
2018-06-11T04:21:36.446Z,17.90
2018-06-11T04:24:07.873Z,17.90
2018-06-11T04:26:37.559Z,17.90
2018-06-11T04:29:07.255Z,17.90
2018-06-11T04:31:36.922Z,17.90
2018-06-11T04:34:06.979Z,17.90
2018-06-11T04:36:36.660Z,17.90
2018-06-11T04:39:07.514Z,17.90
2018-06-11T04:41:37.199Z,18.00
2018-06-11T04:44:06.940Z,18.00
2018-06-11T04:46:36.648Z,18.00
2018-06-11T04:49:06.367Z,18.00
2018-06-11T04:51:36.059Z,18.10
2018-06-11T04:54:05.755Z,18.10
2018-06-11T04:56:35.439Z,18.20
2018-06-11T04:59:05.146Z,18.20
2018-06-11T05:01:34.834Z,18.30
2018-06-11T05:04:04.533Z,18.10
2018-06-11T05:06:34.219Z,18.20
2018-06-11T05:09:04.887Z,18.30
2018-06-11T05:11:34.652Z,18.40
2018-06-11T05:14:04.351Z,18.50
2018-06-11T05:19:03.527Z,18.80
2018-06-11T05:21:33.233Z,18.90
2018-06-11T05:24:02.955Z,19.00
2018-06-11T05:26:32.635Z,19.10
2018-06-11T05:29:02.357Z,19.20
2018-06-11T05:31:32.022Z,19.30
2018-06-11T05:34:01.819Z,19.40
2018-06-11T05:36:31.519Z,19.50
2018-06-11T05:39:01.201Z,19.70
2018-06-11T05:41:30.895Z,19.70
2018-06-11T05:44:00.591Z,19.90
2018-06-11T05:46:30.272Z,20.20
2018-06-11T05:48:59.941Z,20.70
2018-06-11T05:51:29.608Z,21.10
2018-06-11T05:53:59.293Z,21.50
2018-06-11T05:56:29.149Z,21.70
2018-06-11T05:58:58.867Z,21.90
2018-06-11T06:01:28.551Z,22.10
2018-06-11T06:03:58.232Z,22.30
2018-06-11T06:06:27.943Z,22.50
2018-06-11T06:08:57.644Z,22.60
2018-06-11T06:11:27.328Z,22.70
2018-06-11T06:13:57.050Z,22.90
2018-06-11T06:16:26.729Z,22.90
2018-06-11T06:18:57.076Z,23.10
2018-06-11T06:21:26.762Z,23.40
2018-06-11T06:23:56.427Z,23.60
2018-06-11T06:26:26.088Z,23.80
2018-06-11T06:28:55.763Z,24.10
2018-06-11T06:31:25.408Z,24.30
2018-06-11T06:33:55.096Z,24.50
2018-06-11T06:36:25.395Z,24.50
2018-06-11T06:38:55.622Z,24.50
2018-06-11T06:41:25.278Z,24.50
2018-06-11T06:43:54.946Z,24.60
2018-06-11T06:46:24.599Z,24.70
2018-06-11T06:48:56.096Z,24.90
2018-06-11T06:51:26.067Z,25.00
2018-06-11T06:53:56.265Z,25.30
2018-06-11T06:56:26.028Z,25.40
2018-06-11T06:58:55.715Z,25.40
2018-06-11T07:01:25.422Z,25.20
2018-06-11T07:03:55.135Z,24.90
2018-06-11T07:06:24.819Z,24.70
2018-06-11T07:08:54.697Z,24.50
2018-06-11T07:11:24.384Z,24.60
2018-06-11T07:13:54.083Z,25.20
2018-06-11T07:16:23.771Z,25.60
2018-06-11T07:18:53.520Z,26.10
2018-06-11T07:21:23.219Z,26.30
2018-06-11T07:23:52.899Z,26.20
2018-06-11T07:26:22.675Z,25.80
2018-06-11T07:28:52.358Z,25.50
2018-06-11T07:31:22.126Z,25.20
2018-06-11T07:33:51.948Z,25.20
2018-06-11T07:36:21.719Z,25.10
2018-06-11T07:38:51.405Z,25.00
2018-06-11T07:41:21.091Z,25.00
2018-06-11T07:43:50.782Z,25.10
2018-06-11T07:46:20.503Z,25.10
2018-06-11T07:48:50.187Z,25.10
2018-06-11T07:51:19.913Z,25.20
2018-06-11T07:53:49.587Z,25.30
2018-06-11T07:56:19.282Z,25.30
2018-06-11T07:58:48.977Z,25.30
2018-06-11T08:01:18.672Z,25.30
2018-06-11T08:03:48.583Z,25.20
2018-06-11T08:06:18.259Z,25.20
2018-06-11T08:08:47.924Z,25.20
2018-06-11T08:11:17.599Z,25.20
2018-06-11T08:13:47.271Z,25.30
2018-06-11T08:16:16.951Z,25.40
2018-06-11T08:18:46.607Z,25.40
2018-06-11T08:21:16.292Z,25.40
2018-06-11T08:26:15.235Z,25.60
2018-06-11T08:28:44.878Z,25.70
2018-06-11T08:31:14.567Z,25.90
2018-06-11T08:33:44.286Z,26.00
2018-06-11T08:36:14.139Z,26.10
2018-06-11T08:38:43.819Z,26.30
2018-06-11T08:41:13.503Z,26.40
2018-06-11T08:43:43.199Z,26.40
2018-06-11T08:46:12.897Z,26.30
2018-06-11T08:48:42.604Z,26.30
2018-06-11T08:51:12.289Z,26.40
2018-06-11T08:53:41.947Z,26.50
2018-06-11T08:56:11.635Z,26.70
2018-06-11T08:58:41.036Z,26.80
2018-06-11T09:01:10.824Z,26.90
2018-06-11T09:03:40.204Z,27.00
2018-06-11T09:06:09.908Z,27.10
2018-06-11T09:08:39.315Z,27.20
2018-06-11T09:11:09.007Z,27.10
2018-06-11T09:13:38.690Z,27.10
2018-06-11T09:16:08.126Z,27.00
2018-06-11T09:18:37.496Z,27.00
2018-06-11T09:21:08.012Z,27.00
2018-06-11T09:23:37.531Z,26.90
2018-06-11T09:26:06.952Z,27.00
2018-06-11T09:28:36.323Z,27.10
2018-06-11T09:31:06.573Z,27.10
2018-06-11T09:33:36.110Z,27.10
2018-06-11T09:36:05.620Z,27.10
2018-06-11T09:38:35.031Z,27.10
2018-06-11T09:41:04.781Z,27.10
2018-06-11T09:43:34.460Z,27.20
2018-06-11T09:46:04.167Z,27.40
2018-06-11T09:48:33.897Z,27.30
2018-06-11T09:51:03.983Z,27.30
2018-06-11T09:53:33.671Z,27.30
2018-06-11T09:56:03.391Z,27.30
2018-06-11T09:58:33.118Z,27.40
2018-06-11T10:01:02.808Z,27.40
2018-06-11T10:03:32.536Z,27.50
2018-06-11T10:06:02.237Z,27.60
2018-06-11T10:08:31.960Z,27.60
2018-06-11T10:11:01.756Z,27.60
2018-06-11T10:13:31.538Z,27.70
2018-06-11T10:16:01.380Z,27.60
2018-06-11T10:18:31.084Z,27.50
2018-06-11T10:21:00.773Z,27.50
2018-06-11T10:23:30.479Z,27.40
2018-06-11T10:26:00.200Z,27.20
2018-06-11T10:28:29.620Z,27.10
2018-06-11T10:30:59.295Z,27.10
2018-06-11T10:33:28.979Z,27.10
2018-06-11T10:35:58.663Z,27.20
2018-06-11T10:38:28.379Z,27.30
2018-06-11T10:40:57.763Z,27.40
2018-06-11T10:43:27.456Z,27.40
2018-06-11T10:46:02.731Z,27.50
2018-06-11T10:48:32.098Z,27.60
2018-06-11T10:51:01.488Z,27.60
2018-06-11T10:53:30.900Z,27.60
2018-06-11T10:56:00.280Z,27.60
2018-06-11T10:58:29.712Z,27.70
2018-06-11T11:00:59.196Z,27.70
2018-06-11T11:03:28.609Z,27.70
2018-06-11T11:05:58.012Z,27.60
2018-06-11T11:08:27.422Z,27.60
2018-06-11T11:10:56.853Z,27.70
2018-06-11T11:13:26.265Z,27.70
2018-06-11T11:15:55.640Z,27.80
2018-06-11T11:18:25.060Z,27.90
2018-06-11T11:20:54.472Z,28.00
2018-06-11T11:23:23.859Z,28.00
2018-06-11T11:25:55.272Z,27.90
2018-06-11T11:28:24.783Z,27.80
2018-06-11T11:30:54.650Z,27.80
2018-06-11T11:33:24.129Z,27.80
2018-06-11T11:35:53.812Z,28.00
2018-06-11T11:38:23.223Z,27.90
2018-06-11T11:40:52.608Z,28.00
2018-06-11T11:43:22.009Z,28.10
2018-06-11T11:45:59.781Z,28.10
2018-06-11T11:48:37.149Z,28.10
2018-06-11T11:51:10.359Z,28.10
2018-06-11T11:53:41.932Z,28.10
2018-06-11T11:56:13.581Z,28.10
2018-06-11T11:58:45.407Z,28.00
2018-06-11T12:01:15.591Z,28.00
2018-06-11T12:03:47.012Z,28.00
2018-06-11T12:06:17.016Z,28.00
2018-06-11T12:08:47.908Z,28.00
2018-06-11T12:11:17.825Z,28.00
2018-06-11T12:13:48.950Z,28.10
2018-06-11T12:16:19.904Z,28.30
2018-06-11T12:18:49.954Z,28.40
2018-06-11T12:21:19.356Z,28.50
2018-06-11T12:23:48.751Z,28.50
2018-06-11T12:26:18.187Z,28.50
2018-06-11T12:28:47.595Z,28.50
2018-06-11T12:31:17.027Z,28.60
2018-06-11T12:33:46.603Z,28.70
2018-06-11T12:36:16.004Z,28.80
2018-06-11T12:38:47.711Z,28.80
2018-06-11T12:41:17.406Z,28.80
2018-06-11T12:43:47.144Z,28.80
2018-06-11T12:46:16.590Z,28.70
2018-06-11T12:48:46.275Z,28.70
2018-06-11T12:51:16.763Z,28.60
2018-06-11T12:53:46.187Z,28.60
2018-06-11T12:56:15.645Z,28.60
2018-06-11T12:58:45.425Z,28.40
2018-06-11T13:01:14.879Z,28.50
2018-06-11T13:03:48.173Z,28.60
2018-06-11T13:06:20.204Z,28.60
2018-06-11T13:08:50.202Z,28.70
2018-06-11T13:11:19.602Z,28.80
2018-06-11T13:13:49.023Z,28.80
2018-06-11T13:16:18.456Z,28.90
2018-06-11T13:18:47.860Z,28.90
2018-06-11T13:21:17.396Z,28.90
2018-06-11T13:23:46.791Z,28.80
2018-06-11T13:26:16.299Z,28.60
2018-06-11T13:28:46.595Z,28.40
2018-06-11T13:31:16.028Z,28.20
2018-06-11T13:33:45.411Z,28.20
2018-06-11T13:36:14.843Z,28.20
2018-06-11T13:38:44.631Z,28.20
2018-06-11T13:41:14.324Z,28.30
2018-06-11T13:43:43.724Z,28.40
2018-06-11T13:46:13.134Z,28.50
2018-06-11T13:48:42.539Z,28.60
2018-06-11T13:51:11.939Z,28.70
2018-06-11T13:53:41.647Z,28.70
2018-06-11T13:56:11.047Z,28.90
2018-06-11T13:58:40.889Z,29.00
2018-06-11T14:01:10.395Z,29.10
2018-06-11T14:03:39.763Z,29.00
2018-06-11T14:06:09.796Z,29.00
2018-06-11T14:08:39.188Z,29.00
2018-06-11T14:11:08.586Z,29.00
2018-06-11T14:13:38.290Z,29.00
2018-06-11T14:16:08.033Z,29.00
2018-06-11T14:18:37.452Z,29.00
2018-06-11T14:21:06.912Z,28.90
2018-06-11T14:23:36.351Z,28.80
2018-06-11T14:26:05.820Z,28.70
2018-06-11T14:28:35.276Z,28.70
2018-06-11T14:31:05.003Z,28.80
2018-06-11T14:33:36.797Z,28.80
2018-06-11T14:36:06.263Z,28.80
2018-06-11T14:38:35.672Z,28.80
2018-06-11T14:41:05.147Z,28.80
2018-06-11T14:43:34.720Z,28.80
2018-06-11T14:46:04.160Z,28.80
2018-06-11T14:48:33.556Z,28.70
2018-06-11T14:51:03.028Z,28.60
2018-06-11T14:53:32.496Z,28.60
2018-06-11T14:56:01.923Z,28.60
2018-06-11T14:58:31.356Z,28.60
2018-06-11T15:01:00.746Z,28.60
2018-06-11T15:03:31.480Z,28.50
2018-06-11T15:06:03.768Z,28.60
2018-06-11T15:08:33.143Z,28.50
2018-06-11T15:11:02.635Z,28.50
2018-06-11T15:13:32.308Z,28.40
2018-06-11T15:16:01.713Z,28.30
2018-06-11T15:18:31.172Z,27.80
2018-06-11T15:21:00.648Z,27.60
2018-06-11T15:23:30.492Z,27.40
2018-06-11T15:25:59.915Z,27.20
2018-06-11T15:28:29.952Z,27.10
2018-06-11T15:30:59.627Z,27.00
2018-06-11T15:33:29.330Z,26.80
2018-06-11T15:35:59.383Z,26.60
2018-06-11T15:38:29.047Z,26.50
2018-06-11T15:40:58.732Z,26.30
2018-06-11T15:43:28.586Z,25.90
2018-06-11T15:46:00.241Z,25.70
2018-06-11T15:48:29.674Z,25.60
2018-06-11T15:51:00.250Z,25.50
2018-06-11T15:53:29.951Z,25.30
2018-06-11T15:55:59.627Z,25.20
2018-06-11T15:58:29.383Z,25.10
2018-06-11T16:00:59.898Z,25.00
2018-06-11T16:03:29.574Z,24.90
2018-06-11T16:05:59.592Z,24.90
2018-06-11T16:08:30.210Z,24.90
2018-06-11T16:10:59.935Z,24.80
2018-06-11T16:13:29.647Z,24.70
2018-06-11T16:15:59.369Z,24.50
2018-06-11T16:18:29.053Z,24.40
2018-06-11T16:20:58.929Z,24.40
2018-06-11T16:23:28.599Z,24.40
2018-06-11T16:25:58.311Z,24.30
2018-06-11T16:28:28.271Z,24.20
2018-06-11T16:30:57.923Z,24.10
2018-06-11T16:33:27.606Z,24.00
2018-06-11T16:35:57.256Z,23.80
2018-06-11T16:38:26.918Z,23.80
2018-06-11T16:40:56.600Z,23.60
2018-06-11T16:45:55.920Z,23.50
2018-06-11T16:48:25.595Z,23.40
2018-06-11T16:50:55.243Z,23.20
2018-06-11T16:53:24.911Z,23.10
2018-06-11T16:55:54.575Z,23.00
2018-06-11T16:58:24.291Z,22.70
2018-06-11T17:00:54.200Z,22.40
2018-06-11T17:03:23.907Z,22.30
2018-06-11T17:05:53.621Z,22.20
2018-06-11T17:08:23.311Z,22.10
2018-06-11T17:10:53.079Z,21.70
2018-06-11T17:13:23.075Z,21.40
2018-06-11T17:15:52.860Z,21.30
2018-06-11T17:18:22.655Z,21.20
2018-06-11T17:20:52.339Z,21.30
2018-06-11T17:23:22.060Z,21.40
2018-06-11T17:25:51.763Z,21.50
2018-06-11T17:28:21.776Z,21.50
2018-06-11T17:30:51.499Z,21.50
2018-06-11T17:33:21.555Z,21.40
2018-06-11T17:35:51.276Z,21.40
2018-06-11T17:38:20.963Z,21.40
2018-06-11T17:40:51.249Z,21.40
2018-06-11T17:43:20.957Z,21.40
2018-06-11T17:45:50.652Z,21.30
2018-06-11T17:48:20.319Z,21.30
2018-06-11T17:50:50.006Z,21.20
2018-06-11T17:53:19.923Z,21.10
2018-06-11T17:55:49.709Z,21.10
2018-06-11T17:58:19.406Z,21.20
2018-06-11T18:00:49.180Z,21.10
2018-06-11T18:03:19.032Z,21.10
2018-06-11T18:05:48.730Z,21.10
2018-06-11T18:08:18.439Z,21.10
2018-06-11T18:10:48.131Z,21.00
2018-06-11T18:13:17.799Z,21.00
2018-06-11T18:15:47.475Z,21.00
2018-06-11T18:18:17.147Z,21.00
2018-06-11T18:20:46.852Z,20.90
2018-06-11T18:23:16.523Z,20.80
2018-06-11T18:25:46.232Z,20.80
2018-06-11T18:28:16.215Z,20.80
2018-06-11T18:30:47.645Z,20.80
2018-06-11T18:33:17.782Z,20.70
2018-06-11T18:35:47.479Z,20.60
2018-06-11T18:38:17.322Z,20.50
2018-06-11T18:40:47.079Z,20.50
2018-06-11T18:43:17.055Z,20.40
2018-06-11T18:45:46.749Z,20.40
2018-06-11T18:48:16.470Z,20.30
2018-06-11T18:50:46.348Z,20.30
2018-06-11T18:53:16.032Z,20.20
2018-06-11T18:55:45.747Z,20.20
2018-06-11T18:58:15.451Z,20.20
2018-06-11T19:00:45.185Z,20.10
2018-06-11T19:03:14.852Z,20.10
2018-06-11T19:05:44.956Z,20.10
2018-06-11T19:08:14.944Z,20.10
2018-06-11T19:10:44.684Z,20.10
2018-06-11T19:13:14.363Z,20.10
2018-06-11T19:15:44.103Z,20.10
2018-06-11T19:18:13.795Z,20.10
2018-06-11T19:20:43.523Z,20.10
2018-06-11T19:23:13.215Z,20.10
2018-06-11T19:25:42.939Z,20.00
2018-06-11T19:28:12.602Z,20.00
2018-06-11T19:30:42.327Z,19.90
2018-06-11T19:33:12.173Z,19.90
2018-06-11T19:35:41.967Z,20.00
2018-06-11T19:38:11.687Z,20.00
2018-06-11T19:40:41.423Z,20.00
2018-06-11T19:43:11.288Z,20.10
2018-06-11T19:45:46.653Z,20.10
2018-06-11T19:48:16.350Z,20.10
2018-06-11T19:50:46.015Z,20.00
2018-06-11T19:53:15.716Z,20.00
2018-06-11T19:55:45.413Z,19.90
2018-06-11T20:00:45.112Z,20.00
2018-06-11T20:03:14.814Z,20.00
2018-06-11T20:05:44.496Z,19.90
2018-06-11T20:08:14.195Z,19.80
2018-06-11T20:10:43.870Z,19.80
2018-06-11T20:13:13.571Z,19.80
2018-06-11T20:15:43.260Z,19.80
2018-06-11T20:18:12.922Z,19.90
2018-06-11T20:20:42.699Z,19.80
2018-06-11T20:23:12.367Z,19.90
2018-06-11T20:25:42.115Z,19.80
2018-06-11T20:28:11.779Z,19.80
2018-06-11T20:30:41.475Z,19.70
2018-06-11T20:33:11.167Z,19.70
2018-06-11T20:35:40.889Z,19.60
2018-06-11T20:38:10.547Z,19.60
2018-06-11T20:40:40.251Z,19.60
2018-06-11T20:43:09.907Z,19.60
2018-06-11T20:45:45.795Z,19.60
2018-06-11T20:48:15.696Z,19.60
2018-06-11T20:50:46.186Z,19.50
2018-06-11T20:53:15.920Z,19.50
2018-06-11T20:55:45.643Z,19.50
2018-06-11T20:58:15.787Z,19.40
2018-06-11T21:00:45.444Z,19.40
2018-06-11T21:03:15.235Z,19.40
2018-06-11T21:05:44.952Z,19.40
2018-06-11T21:08:14.696Z,19.40
2018-06-11T21:10:44.399Z,19.40
2018-06-11T21:13:14.163Z,19.50
2018-06-11T21:15:43.843Z,19.50
2018-06-11T21:18:13.525Z,19.50
2018-06-11T21:20:43.548Z,19.40
2018-06-11T21:23:13.243Z,19.50
2018-06-11T21:25:42.959Z,19.50
2018-06-11T21:28:12.679Z,19.50
2018-06-11T21:30:42.368Z,19.50
2018-06-11T21:33:12.076Z,19.40
2018-06-11T21:35:41.755Z,19.40
2018-06-11T21:38:11.527Z,19.30
2018-06-11T21:40:41.247Z,19.30
2018-06-11T21:43:10.981Z,19.40
2018-06-11T21:45:40.707Z,19.40
2018-06-11T21:48:10.419Z,19.30
2018-06-11T21:50:40.104Z,19.40
2018-06-11T21:53:09.824Z,19.30
2018-06-11T21:55:39.529Z,19.30
2018-06-11T21:58:09.243Z,19.30
2018-06-11T22:00:39.004Z,19.30
2018-06-11T22:03:09.292Z,19.30
2018-06-11T22:05:38.979Z,19.40
2018-06-11T22:08:08.686Z,19.40
2018-06-11T22:10:38.375Z,19.40
2018-06-11T22:13:08.091Z,19.40
2018-06-11T22:15:38.177Z,19.40
2018-06-11T22:18:07.908Z,19.50
2018-06-11T22:20:37.603Z,19.40
2018-06-11T22:23:07.335Z,19.50
2018-06-11T22:25:37.027Z,19.40
2018-06-11T22:28:06.791Z,19.40
2018-06-11T22:30:36.499Z,19.30
2018-06-11T22:33:06.460Z,19.30
2018-06-11T22:35:36.135Z,19.40
2018-06-11T22:38:05.937Z,19.40
2018-06-11T22:40:35.627Z,19.40
2018-06-11T22:43:05.415Z,19.50
2018-06-11T22:45:40.703Z,19.40
2018-06-11T22:48:10.428Z,19.40
2018-06-11T22:50:40.139Z,19.30
2018-06-11T22:53:10.695Z,19.30
2018-06-11T22:55:40.391Z,19.30
2018-06-11T22:58:10.137Z,19.30
2018-06-11T23:00:39.839Z,19.30
2018-06-11T23:03:09.586Z,19.30
2018-06-11T23:05:39.418Z,19.40
2018-06-11T23:08:09.151Z,19.40
2018-06-11T23:10:38.850Z,19.40
2018-06-11T23:13:08.658Z,19.40
2018-06-11T23:15:38.367Z,19.30
2018-06-11T23:18:08.144Z,19.30
2018-06-11T23:20:37.840Z,19.30
2018-06-11T23:23:07.795Z,19.30
2018-06-11T23:25:37.498Z,19.40
2018-06-11T23:28:07.214Z,19.30
2018-06-11T23:30:37.348Z,19.30
2018-06-11T23:33:07.079Z,19.30
2018-06-11T23:35:36.808Z,19.40
2018-06-11T23:38:06.565Z,19.40
2018-06-11T23:40:36.332Z,19.30
2018-06-11T23:43:06.044Z,19.30
2018-06-11T23:45:35.768Z,19.30
2018-06-11T23:48:05.499Z,19.30
2018-06-11T23:50:35.214Z,19.30
2018-06-11T23:53:05.267Z,19.30
2018-06-11T23:55:34.994Z,19.40
2018-06-11T23:58:04.847Z,19.40
